sensor_id;sensor_type;location;lat;lon;timestamp;temperature;humidity
68746;SHT31;66104;45.456;11.064;2023-03-03T00:01:08;7.85;67.20
68746;SHT31;66104;45.456;11.064;2023-03-03T00:03:44;7.83;67.20
68746;SHT31;66104;45.456;11.064;2023-03-03T00:06:21;7.81;67.27
68746;SHT31;66104;45.456;11.064;2023-03-03T00:08:58;7.82;67.26
68746;SHT31;66104;45.456;11.064;2023-03-03T00:11:34;7.87;67.08
68746;SHT31;66104;45.456;11.064;2023-03-03T00:14:16;7.93;66.82
68746;SHT31;66104;45.456;11.064;2023-03-03T00:16:58;7.96;66.58
68746;SHT31;66104;45.456;11.064;2023-03-03T00:19:51;7.96;66.39
68746;SHT31;66104;45.456;11.064;2023-03-03T00:22:28;7.97;66.30
68746;SHT31;66104;45.456;11.064;2023-03-03T00:25:20;7.98;66.28
68746;SHT31;66104;45.456;11.064;2023-03-03T00:28:07;7.97;66.31
68746;SHT31;66104;45.456;11.064;2023-03-03T00:30:58;7.93;66.40
68746;SHT31;66104;45.456;11.064;2023-03-03T00:33:47;7.87;66.53
68746;SHT31;66104;45.456;11.064;2023-03-03T00:39:21;7.74;66.80
68746;SHT31;66104;45.456;11.064;2023-03-03T00:42:04;7.73;66.72
68746;SHT31;66104;45.456;11.064;2023-03-03T00:44:47;7.70;66.85
68746;SHT31;66104;45.456;11.064;2023-03-03T00:47:30;7.64;67.06
68746;SHT31;66104;45.456;11.064;2023-03-03T00:53:12;7.63;66.93
68746;SHT31;66104;45.456;11.064;2023-03-03T00:55:49;7.63;66.85
68746;SHT31;66104;45.456;11.064;2023-03-03T00:58:25;7.68;66.58
68746;SHT31;66104;45.456;11.064;2023-03-03T01:01:02;7.71;66.37
68746;SHT31;66104;45.456;11.064;2023-03-03T01:03:45;7.72;66.15
68746;SHT31;66104;45.456;11.064;2023-03-03T01:06:21;7.69;65.98
68746;SHT31;66104;45.456;11.064;2023-03-03T01:08:59;7.69;65.88
68746;SHT31;66104;45.456;11.064;2023-03-03T01:11:36;7.71;65.77
68746;SHT31;66104;45.456;11.064;2023-03-03T01:14:12;7.70;65.66
68746;SHT31;66104;45.456;11.064;2023-03-03T01:16:48;7.72;65.56
68746;SHT31;66104;45.456;11.064;2023-03-03T01:19:25;7.71;65.51
68746;SHT31;66104;45.456;11.064;2023-03-03T01:22:01;7.67;65.50
68746;SHT31;66104;45.456;11.064;2023-03-03T01:24:38;7.66;65.50
68746;SHT31;66104;45.456;11.064;2023-03-03T01:27:15;7.64;65.50
68746;SHT31;66104;45.456;11.064;2023-03-03T01:29:52;7.61;65.46
68746;SHT31;66104;45.456;11.064;2023-03-03T01:32:29;7.55;65.44
68746;SHT31;66104;45.456;11.064;2023-03-03T01:35:06;7.55;65.60
68746;SHT31;66104;45.456;11.064;2023-03-03T01:37:45;7.58;65.55
68746;SHT31;66104;45.456;11.064;2023-03-03T01:40:23;7.57;65.50
68746;SHT31;66104;45.456;11.064;2023-03-03T01:43:03;7.60;65.47
68746;SHT31;66104;45.456;11.064;2023-03-03T01:46:18;7.60;65.36
68746;SHT31;66104;45.456;11.064;2023-03-03T01:49:21;7.62;65.26
68746;SHT31;66104;45.456;11.064;2023-03-03T01:52:01;7.63;65.13
68746;SHT31;66104;45.456;11.064;2023-03-03T01:54:51;7.61;65.12
68746;SHT31;66104;45.456;11.064;2023-03-03T01:57:34;7.61;65.12
68746;SHT31;66104;45.456;11.064;2023-03-03T02:00:14;7.60;64.98
68746;SHT31;66104;45.456;11.064;2023-03-03T02:02:52;7.55;64.98
68746;SHT31;66104;45.456;11.064;2023-03-03T02:05:28;7.52;65.00
68746;SHT31;66104;45.456;11.064;2023-03-03T02:08:06;7.49;65.08
68746;SHT31;66104;45.456;11.064;2023-03-03T02:10:46;7.45;65.15
68746;SHT31;66104;45.456;11.064;2023-03-03T02:13:25;7.43;65.20
68746;SHT31;66104;45.456;11.064;2023-03-03T02:16:02;7.39;65.23
68746;SHT31;66104;45.456;11.064;2023-03-03T02:18:40;7.39;65.28
68746;SHT31;66104;45.456;11.064;2023-03-03T02:21:18;7.40;65.27
68746;SHT31;66104;45.456;11.064;2023-03-03T02:23:58;7.43;65.13
68746;SHT31;66104;45.456;11.064;2023-03-03T02:26:40;7.48;65.01
68746;SHT31;66104;45.456;11.064;2023-03-03T02:29:17;7.50;64.91
68746;SHT31;66104;45.456;11.064;2023-03-03T02:31:54;7.53;64.84
68746;SHT31;66104;45.456;11.064;2023-03-03T02:34:30;7.56;64.77
68746;SHT31;66104;45.456;11.064;2023-03-03T02:37:22;7.58;64.61
68746;SHT31;66104;45.456;11.064;2023-03-03T02:39:58;7.59;64.53
68746;SHT31;66104;45.456;11.064;2023-03-03T02:42:38;7.59;64.41
68746;SHT31;66104;45.456;11.064;2023-03-03T02:45:17;7.57;64.47
68746;SHT31;66104;45.456;11.064;2023-03-03T02:47:54;7.55;64.50
68746;SHT31;66104;45.456;11.064;2023-03-03T02:50:30;7.54;64.53
68746;SHT31;66104;45.456;11.064;2023-03-03T02:53:06;7.53;64.44
68746;SHT31;66104;45.456;11.064;2023-03-03T02:55:42;7.52;64.40
68746;SHT31;66104;45.456;11.064;2023-03-03T02:58:19;7.48;64.47
68746;SHT31;66104;45.456;11.064;2023-03-03T03:00:55;7.43;64.56
68746;SHT31;66104;45.456;11.064;2023-03-03T03:03:33;7.39;64.66
68746;SHT31;66104;45.456;11.064;2023-03-03T03:06:10;7.32;64.79
68746;SHT31;66104;45.456;11.064;2023-03-03T03:08:46;7.26;64.88
68746;SHT31;66104;45.456;11.064;2023-03-03T03:11:23;7.23;64.97
68746;SHT31;66104;45.456;11.064;2023-03-03T03:14:00;7.18;65.09
68746;SHT31;66104;45.456;11.064;2023-03-03T03:16:36;7.15;65.20
68746;SHT31;66104;45.456;11.064;2023-03-03T03:19:13;7.12;65.19
68746;SHT31;66104;45.456;11.064;2023-03-03T03:21:51;7.12;65.20
68746;SHT31;66104;45.456;11.064;2023-03-03T03:24:28;7.13;65.19
68746;SHT31;66104;45.456;11.064;2023-03-03T03:27:07;7.14;65.11
68746;SHT31;66104;45.456;11.064;2023-03-03T03:29:44;7.16;65.16
68746;SHT31;66104;45.456;11.064;2023-03-03T03:32:25;7.17;65.19
68746;SHT31;66104;45.456;11.064;2023-03-03T03:35:01;7.19;65.14
68746;SHT31;66104;45.456;11.064;2023-03-03T03:37:41;7.20;65.10
68746;SHT31;66104;45.456;11.064;2023-03-03T03:40:20;7.20;65.10
68746;SHT31;66104;45.456;11.064;2023-03-03T03:42:56;7.18;65.10
68746;SHT31;66104;45.456;11.064;2023-03-03T03:45:32;7.17;65.14
68746;SHT31;66104;45.456;11.064;2023-03-03T03:48:09;7.16;65.17
68746;SHT31;66104;45.456;11.064;2023-03-03T03:50:47;7.15;65.15
68746;SHT31;66104;45.456;11.064;2023-03-03T03:53:25;7.12;65.20
68746;SHT31;66104;45.456;11.064;2023-03-03T03:56:02;7.10;65.20
68746;SHT31;66104;45.456;11.064;2023-03-03T03:58:42;7.09;65.27
68746;SHT31;66104;45.456;11.064;2023-03-03T04:01:19;7.07;65.29
68746;SHT31;66104;45.456;11.064;2023-03-03T04:03:57;7.07;65.33
68746;SHT31;66104;45.456;11.064;2023-03-03T04:06:34;7.08;65.40
68746;SHT31;66104;45.456;11.064;2023-03-03T04:09:12;7.08;65.42
68746;SHT31;66104;45.456;11.064;2023-03-03T04:11:48;7.07;65.48
68746;SHT31;66104;45.456;11.064;2023-03-03T04:14:25;7.05;65.50
68746;SHT31;66104;45.456;11.064;2023-03-03T04:17:02;7.04;65.55
68746;SHT31;66104;45.456;11.064;2023-03-03T04:19:40;7.04;65.55
68746;SHT31;66104;45.456;11.064;2023-03-03T04:22:17;7.03;65.52
68746;SHT31;66104;45.456;11.064;2023-03-03T04:24:54;7.00;65.51
68746;SHT31;66104;45.456;11.064;2023-03-03T04:27:36;6.98;65.58
68746;SHT31;66104;45.456;11.064;2023-03-03T04:30:14;6.95;65.63
68746;SHT31;66104;45.456;11.064;2023-03-03T04:32:54;6.94;65.63
68746;SHT31;66104;45.456;11.064;2023-03-03T04:35:31;6.91;65.67
68746;SHT31;66104;45.456;11.064;2023-03-03T04:38:08;6.91;65.65
68746;SHT31;66104;45.456;11.064;2023-03-03T04:40:46;6.89;65.66
68746;SHT31;66104;45.456;11.064;2023-03-03T04:43:23;6.89;65.73
68746;SHT31;66104;45.456;11.064;2023-03-03T04:46:01;6.91;65.73
68746;SHT31;66104;45.456;11.064;2023-03-03T04:48:37;6.94;65.76
68746;SHT31;66104;45.456;11.064;2023-03-03T04:51:14;6.93;65.89
68746;SHT31;66104;45.456;11.064;2023-03-03T04:53:50;6.92;65.91
68746;SHT31;66104;45.456;11.064;2023-03-03T04:56:26;6.87;66.00
68746;SHT31;66104;45.456;11.064;2023-03-03T04:59:05;6.78;65.77
68746;SHT31;66104;45.456;11.064;2023-03-03T05:01:43;6.65;66.09
68746;SHT31;66104;45.456;11.064;2023-03-03T05:04:19;6.53;66.57
68746;SHT31;66104;45.456;11.064;2023-03-03T05:06:56;6.39;67.19
68746;SHT31;66104;45.456;11.064;2023-03-03T05:09:33;6.26;67.84
68746;SHT31;66104;45.456;11.064;2023-03-03T05:12:10;6.21;68.08
68746;SHT31;66104;45.456;11.064;2023-03-03T05:14:47;6.19;68.34
68746;SHT31;66104;45.456;11.064;2023-03-03T05:17:24;6.25;68.47
68746;SHT31;66104;45.456;11.064;2023-03-03T05:20:01;6.31;68.39
68746;SHT31;66104;45.456;11.064;2023-03-03T05:22:42;6.38;68.20
68746;SHT31;66104;45.456;11.064;2023-03-03T05:25:19;6.48;67.94
68746;SHT31;66104;45.456;11.064;2023-03-03T05:27:55;6.54;67.59
68746;SHT31;66104;45.456;11.064;2023-03-03T05:30:32;6.58;67.43
68746;SHT31;66104;45.456;11.064;2023-03-03T05:33:10;6.59;67.39
68746;SHT31;66104;45.456;11.064;2023-03-03T05:35:46;6.60;67.42
68746;SHT31;66104;45.456;11.064;2023-03-03T05:38:26;6.58;67.46
68746;SHT31;66104;45.456;11.064;2023-03-03T05:41:02;6.56;67.49
68746;SHT31;66104;45.456;11.064;2023-03-03T05:43:39;6.57;67.50
68746;SHT31;66104;45.456;11.064;2023-03-03T05:46:16;6.55;67.60
68746;SHT31;66104;45.456;11.064;2023-03-03T05:48:52;6.45;67.98
68746;SHT31;66104;45.456;11.064;2023-03-03T05:51:29;6.33;68.24
68746;SHT31;66104;45.456;11.064;2023-03-03T05:54:06;6.21;68.58
68746;SHT31;66104;45.456;11.064;2023-03-03T05:56:43;6.16;68.92
68746;SHT31;66104;45.456;11.064;2023-03-03T05:59:18;6.13;69.00
68746;SHT31;66104;45.456;11.064;2023-03-03T06:01:54;6.13;69.01
68746;SHT31;66104;45.456;11.064;2023-03-03T06:04:31;6.14;69.15
68746;SHT31;66104;45.456;11.064;2023-03-03T06:07:07;6.15;69.20
68746;SHT31;66104;45.456;11.064;2023-03-03T06:09:44;6.17;69.30
68746;SHT31;66104;45.456;11.064;2023-03-03T06:12:20;6.23;69.69
68746;SHT31;66104;45.456;11.064;2023-03-03T06:14:56;6.28;69.55
68746;SHT31;66104;45.456;11.064;2023-03-03T06:17:34;6.27;69.16
68746;SHT31;66104;45.456;11.064;2023-03-03T06:20:11;6.24;69.26
68746;SHT31;66104;45.456;11.064;2023-03-03T06:22:50;6.21;69.60
68746;SHT31;66104;45.456;11.064;2023-03-03T06:25:25;6.21;69.96
68746;SHT31;66104;45.456;11.064;2023-03-03T06:28:03;6.26;70.15
68746;SHT31;66104;45.456;11.064;2023-03-03T06:30:41;6.36;70.33
68746;SHT31;66104;45.456;11.064;2023-03-03T06:33:18;6.46;70.16
68746;SHT31;66104;45.456;11.064;2023-03-03T06:35:54;6.59;70.05
68746;SHT31;66104;45.456;11.064;2023-03-03T06:38:33;6.71;69.71
68746;SHT31;66104;45.456;11.064;2023-03-03T06:41:10;6.83;69.48
68746;SHT31;66104;45.456;11.064;2023-03-03T06:43:46;6.97;69.50
68746;SHT31;66104;45.456;11.064;2023-03-03T06:46:22;7.13;69.11
68746;SHT31;66104;45.456;11.064;2023-03-03T06:48:59;7.26;68.83
68746;SHT31;66104;45.456;11.064;2023-03-03T06:51:37;7.38;68.65
68746;SHT31;66104;45.456;11.064;2023-03-03T06:54:15;7.52;68.30
68746;SHT31;66104;45.456;11.064;2023-03-03T06:56:59;7.63;67.98
68746;SHT31;66104;45.456;11.064;2023-03-03T06:59:50;7.73;67.80
68746;SHT31;66104;45.456;11.064;2023-03-03T07:02:33;7.89;67.57
68746;SHT31;66104;45.456;11.064;2023-03-03T07:05:11;7.99;67.22
68746;SHT31;66104;45.456;11.064;2023-03-03T07:07:50;8.07;67.04
68746;SHT31;66104;45.456;11.064;2023-03-03T07:10:28;8.16;66.89
68746;SHT31;66104;45.456;11.064;2023-03-03T07:13:13;8.24;66.49
68746;SHT31;66104;45.456;11.064;2023-03-03T07:15:56;8.32;66.14
68746;SHT31;66104;45.456;11.064;2023-03-03T07:18:42;8.41;65.69
68746;SHT31;66104;45.456;11.064;2023-03-03T07:21:22;8.49;65.45
68746;SHT31;66104;45.456;11.064;2023-03-03T07:24:11;8.55;65.13
68746;SHT31;66104;45.456;11.064;2023-03-03T07:27:05;8.65;65.04
68746;SHT31;66104;45.456;11.064;2023-03-03T07:29:48;8.77;64.80
68746;SHT31;66104;45.456;11.064;2023-03-03T07:32:34;8.87;64.62
68746;SHT31;66104;45.456;11.064;2023-03-03T07:35:21;8.97;64.76
68746;SHT31;66104;45.456;11.064;2023-03-03T07:38:16;9.11;65.17
68746;SHT31;66104;45.456;11.064;2023-03-03T07:41:08;9.23;65.20
68746;SHT31;66104;45.456;11.064;2023-03-03T07:43:49;9.32;64.82
68746;SHT31;66104;45.456;11.064;2023-03-03T07:46:33;9.41;64.22
68746;SHT31;66104;45.456;11.064;2023-03-03T07:49:20;9.52;64.20
68746;SHT31;66104;45.456;11.064;2023-03-03T07:52:15;9.64;64.38
68746;SHT31;66104;45.456;11.064;2023-03-03T07:55:01;9.78;64.54
68746;SHT31;66104;45.456;11.064;2023-03-03T07:58:13;9.90;64.60
68746;SHT31;66104;45.456;11.064;2023-03-03T08:04:17;10.12;64.57
68746;SHT31;66104;45.456;11.064;2023-03-03T08:06:59;10.23;64.33
68746;SHT31;66104;45.456;11.064;2023-03-03T08:09:50;10.31;64.10
68746;SHT31;66104;45.456;11.064;2023-03-03T08:15:20;10.48;63.91
68746;SHT31;66104;45.456;11.064;2023-03-03T08:18:12;10.54;64.00
68746;SHT31;66104;45.456;11.064;2023-03-03T08:20:59;10.64;64.06
68746;SHT31;66104;45.456;11.064;2023-03-03T08:23:42;10.73;63.77
68746;SHT31;66104;45.456;11.064;2023-03-03T08:26:21;10.81;62.89
68746;SHT31;66104;45.456;11.064;2023-03-03T08:28:58;10.86;62.75
68746;SHT31;66104;45.456;11.064;2023-03-03T08:31:36;10.90;63.29
68746;SHT31;66104;45.456;11.064;2023-03-03T08:34:12;10.93;63.76
68746;SHT31;66104;45.456;11.064;2023-03-03T08:36:49;10.97;63.73
68746;SHT31;66104;45.456;11.064;2023-03-03T08:39:26;10.99;63.41
68746;SHT31;66104;45.456;11.064;2023-03-03T08:42:03;11.04;63.12
68746;SHT31;66104;45.456;11.064;2023-03-03T08:44:40;11.09;62.98
68746;SHT31;66104;45.456;11.064;2023-03-03T08:47:16;11.14;62.29
68746;SHT31;66104;45.456;11.064;2023-03-03T08:49:53;11.18;62.09
68746;SHT31;66104;45.456;11.064;2023-03-03T08:52:29;11.23;62.04
68746;SHT31;66104;45.456;11.064;2023-03-03T08:55:07;11.28;62.07
68746;SHT31;66104;45.456;11.064;2023-03-03T08:57:45;11.34;61.89
68746;SHT31;66104;45.456;11.064;2023-03-03T09:00:21;11.42;61.68
68746;SHT31;66104;45.456;11.064;2023-03-03T09:02:58;11.49;61.44
68746;SHT31;66104;45.456;11.064;2023-03-03T09:05:36;11.58;61.34
68746;SHT31;66104;45.456;11.064;2023-03-03T09:08:14;11.65;61.07
68746;SHT31;66104;45.456;11.064;2023-03-03T09:10:51;11.73;60.71
68746;SHT31;66104;45.456;11.064;2023-03-03T09:13:28;11.80;60.58
68746;SHT31;66104;45.456;11.064;2023-03-03T09:16:09;11.86;60.29
68746;SHT31;66104;45.456;11.064;2023-03-03T09:18:49;11.95;59.67
68746;SHT31;66104;45.456;11.064;2023-03-03T09:21:27;12.03;59.35
68746;SHT31;66104;45.456;11.064;2023-03-03T09:24:09;12.09;59.43
68746;SHT31;66104;45.456;11.064;2023-03-03T09:26:57;12.17;59.21
68746;SHT31;66104;45.456;11.064;2023-03-03T09:29:44;12.23;59.01
68746;SHT31;66104;45.456;11.064;2023-03-03T09:32:23;12.29;58.98
68746;SHT31;66104;45.456;11.064;2023-03-03T09:38:09;12.38;59.03
68746;SHT31;66104;45.456;11.064;2023-03-03T09:41:15;12.40;58.65
68746;SHT31;66104;45.456;11.064;2023-03-03T09:51:20;12.43;58.51
68746;SHT31;66104;45.456;11.064;2023-03-03T09:54:20;12.41;58.55
68746;SHT31;66104;45.456;11.064;2023-03-03T09:57:12;12.43;58.87
68746;SHT31;66104;45.456;11.064;2023-03-03T10:00:03;12.45;58.81
68746;SHT31;66104;45.456;11.064;2023-03-03T10:06:25;12.57;58.57
68746;SHT31;66104;45.456;11.064;2023-03-03T10:09:14;12.62;58.34
68746;SHT31;66104;45.456;11.064;2023-03-03T10:12:27;12.64;57.98
68746;SHT31;66104;45.456;11.064;2023-03-03T10:15:38;12.67;58.11
68746;SHT31;66104;45.456;11.064;2023-03-03T10:18:28;12.69;58.11
68746;SHT31;66104;45.456;11.064;2023-03-03T10:21:15;12.73;58.31
68746;SHT31;66104;45.456;11.064;2023-03-03T10:24:01;12.79;57.86
68746;SHT31;66104;45.456;11.064;2023-03-03T10:27:00;12.86;57.92
68746;SHT31;66104;45.456;11.064;2023-03-03T10:29:58;12.94;57.89
68746;SHT31;66104;45.456;11.064;2023-03-03T10:33:06;13.00;57.95
68746;SHT31;66104;45.456;11.064;2023-03-03T10:36:02;13.04;57.30
68746;SHT31;66104;45.456;11.064;2023-03-03T10:42:20;13.07;57.70
68746;SHT31;66104;45.456;11.064;2023-03-03T10:45:17;13.10;57.92
68746;SHT31;66104;45.456;11.064;2023-03-03T10:48:17;13.14;57.75
68746;SHT31;66104;45.456;11.064;2023-03-03T10:51:15;13.16;57.51
68746;SHT31;66104;45.456;11.064;2023-03-03T10:54:06;13.18;57.61
68746;SHT31;66104;45.456;11.064;2023-03-03T10:56:59;13.21;57.65
68746;SHT31;66104;45.456;11.064;2023-03-03T10:59:51;13.24;57.51
68746;SHT31;66104;45.456;11.064;2023-03-03T11:03:05;13.23;57.42
68746;SHT31;66104;45.456;11.064;2023-03-03T11:06:15;13.26;57.73
68746;SHT31;66104;45.456;11.064;2023-03-03T11:08:57;13.29;57.53
68746;SHT31;66104;45.456;11.064;2023-03-03T11:11:46;13.29;56.96
68746;SHT31;66104;45.456;11.064;2023-03-03T11:14:35;13.28;57.31
68746;SHT31;66104;45.456;11.064;2023-03-03T11:17:22;13.28;57.42
68746;SHT31;66104;45.456;11.064;2023-03-03T11:20:22;13.27;57.58
68746;SHT31;66104;45.456;11.064;2023-03-03T11:23:15;13.25;57.74
68746;SHT31;66104;45.456;11.064;2023-03-03T11:26:23;13.27;58.11
68746;SHT31;66104;45.456;11.064;2023-03-03T11:29:33;13.31;58.46
68746;SHT31;66104;45.456;11.064;2023-03-03T11:32:34;13.34;58.51
68746;SHT31;66104;45.456;11.064;2023-03-03T11:35:23;13.38;58.69
68746;SHT31;66104;45.456;11.064;2023-03-03T11:41:22;13.46;58.43
68746;SHT31;66104;45.456;11.064;2023-03-03T11:44:12;13.48;58.40
68746;SHT31;66104;45.456;11.064;2023-03-03T11:46:58;13.49;58.27
68746;SHT31;66104;45.456;11.064;2023-03-03T11:49:46;13.48;58.01
68746;SHT31;66104;45.456;11.064;2023-03-03T11:52:23;13.50;58.13
68746;SHT31;66104;45.456;11.064;2023-03-03T11:55:16;13.54;58.12
68746;SHT31;66104;45.456;11.064;2023-03-03T11:58:03;13.54;57.93
68746;SHT31;66104;45.456;11.064;2023-03-03T12:00:51;13.57;57.67
68746;SHT31;66104;45.456;11.064;2023-03-03T12:03:34;13.58;57.44
68746;SHT31;66104;45.456;11.064;2023-03-03T12:06:21;13.59;57.40
68746;SHT31;66104;45.456;11.064;2023-03-03T12:09:15;13.64;57.33
68746;SHT31;66104;45.456;11.064;2023-03-03T12:12:05;13.69;57.21
68746;SHT31;66104;45.456;11.064;2023-03-03T12:17:53;13.66;56.72
68746;SHT31;66104;45.456;11.064;2023-03-03T12:21:06;13.67;57.00
68746;SHT31;66104;45.456;11.064;2023-03-03T12:24:04;13.71;57.17
68746;SHT31;66104;45.456;11.064;2023-03-03T12:27:00;13.75;57.02
68746;SHT31;66104;45.456;11.064;2023-03-03T12:29:53;13.81;56.90
68746;SHT31;66104;45.456;11.064;2023-03-03T12:32:53;13.88;56.80
68746;SHT31;66104;45.456;11.064;2023-03-03T12:35:52;13.96;56.68
68746;SHT31;66104;45.456;11.064;2023-03-03T12:38:39;14.02;56.26
68746;SHT31;66104;45.456;11.064;2023-03-03T12:41:31;14.10;56.08
68746;SHT31;66104;45.456;11.064;2023-03-03T12:44:17;14.15;55.89
68746;SHT31;66104;45.456;11.064;2023-03-03T12:47:00;14.19;55.79
68746;SHT31;66104;45.456;11.064;2023-03-03T12:49:59;14.19;55.40
68746;SHT31;66104;45.456;11.064;2023-03-03T12:52:56;14.17;55.31
68746;SHT31;66104;45.456;11.064;2023-03-03T12:55:50;14.16;55.39
68746;SHT31;66104;45.456;11.064;2023-03-03T13:01:34;14.15;55.53
68746;SHT31;66104;45.456;11.064;2023-03-03T13:04:32;14.18;55.33
68746;SHT31;66104;45.456;11.064;2023-03-03T13:07:14;14.23;54.96
68746;SHT31;66104;45.456;11.064;2023-03-03T13:10:09;14.26;54.92
68746;SHT31;66104;45.456;11.064;2023-03-03T13:12:58;14.30;54.69
68746;SHT31;66104;45.456;11.064;2023-03-03T13:15:46;14.31;54.63
68746;SHT31;66104;45.456;11.064;2023-03-03T13:18:38;14.37;54.83
68746;SHT31;66104;45.456;11.064;2023-03-03T13:21:30;14.43;54.73
68746;SHT31;66104;45.456;11.064;2023-03-03T13:24:14;14.47;54.51
68746;SHT31;66104;45.456;11.064;2023-03-03T13:26:59;14.54;53.51
68746;SHT31;66104;45.456;11.064;2023-03-03T13:29:42;14.61;53.31
68746;SHT31;66104;45.456;11.064;2023-03-03T13:32:30;14.61;52.81
68746;SHT31;66104;45.456;11.064;2023-03-03T13:35:17;14.58;52.93
68746;SHT31;66104;45.456;11.064;2023-03-03T13:38:05;14.54;52.46
68746;SHT31;66104;45.456;11.064;2023-03-03T13:40:50;14.48;52.50
68746;SHT31;66104;45.456;11.064;2023-03-03T13:43:39;14.44;52.73
68746;SHT31;66104;45.456;11.064;2023-03-03T13:46:25;14.46;53.15
68746;SHT31;66104;45.456;11.064;2023-03-03T13:52:17;14.55;52.44
68746;SHT31;66104;45.456;11.064;2023-03-03T13:55:02;14.56;52.58
68746;SHT31;66104;45.456;11.064;2023-03-03T13:57:58;14.58;52.44
68746;SHT31;66104;45.456;11.064;2023-03-03T14:00:46;14.62;51.97
68746;SHT31;66104;45.456;11.064;2023-03-03T14:03:39;14.65;51.62
68746;SHT31;66104;45.456;11.064;2023-03-03T14:06:35;14.65;51.21
68746;SHT31;66104;45.456;11.064;2023-03-03T14:12:27;14.65;51.75
68746;SHT31;66104;45.456;11.064;2023-03-03T14:15:17;14.66;52.20
68746;SHT31;66104;45.456;11.064;2023-03-03T14:18:04;14.65;51.62
68746;SHT31;66104;45.456;11.064;2023-03-03T14:20:59;14.62;51.93
68746;SHT31;66104;45.456;11.064;2023-03-03T14:23:49;14.59;51.80
68746;SHT31;66104;45.456;11.064;2023-03-03T14:26:46;14.53;51.52
68746;SHT31;66104;45.456;11.064;2023-03-03T14:29:31;14.47;51.48
68746;SHT31;66104;45.456;11.064;2023-03-03T14:32:21;14.42;51.89
68746;SHT31;66104;45.456;11.064;2023-03-03T14:35:14;14.38;52.34
68746;SHT31;66104;45.456;11.064;2023-03-03T14:38:07;14.35;51.74
68746;SHT31;66104;45.456;11.064;2023-03-03T14:40:46;14.31;52.14
68746;SHT31;66104;45.456;11.064;2023-03-03T14:43:43;14.31;52.01
68746;SHT31;66104;45.456;11.064;2023-03-03T14:46:34;14.31;52.21
68746;SHT31;66104;45.456;11.064;2023-03-03T14:49:15;14.30;51.12
68746;SHT31;66104;45.456;11.064;2023-03-03T14:52:08;14.27;51.02
68746;SHT31;66104;45.456;11.064;2023-03-03T14:54:55;14.27;51.78
68746;SHT31;66104;45.456;11.064;2023-03-03T14:57:55;14.29;52.14
68746;SHT31;66104;45.456;11.064;2023-03-03T15:00:35;14.28;52.71
68746;SHT31;66104;45.456;11.064;2023-03-03T15:03:19;14.27;53.03
68746;SHT31;66104;45.456;11.064;2023-03-03T15:05:59;14.24;53.25
68746;SHT31;66104;45.456;11.064;2023-03-03T15:08:43;14.25;53.21
68746;SHT31;66104;45.456;11.064;2023-03-03T15:11:24;14.25;53.31
68746;SHT31;66104;45.456;11.064;2023-03-03T15:14:11;14.24;53.26
68746;SHT31;66104;45.456;11.064;2023-03-03T15:16:53;14.24;53.30
68746;SHT31;66104;45.456;11.064;2023-03-03T15:26:28;14.25;53.55
68746;SHT31;66104;45.456;11.064;2023-03-03T15:29:16;14.23;53.56
68746;SHT31;66104;45.456;11.064;2023-03-03T15:32:02;14.21;53.81
68746;SHT31;66104;45.456;11.064;2023-03-03T15:34:52;14.19;54.03
68746;SHT31;66104;45.456;11.064;2023-03-03T15:37:39;14.18;54.16
68746;SHT31;66104;45.456;11.064;2023-03-03T15:40:25;14.15;54.41
68746;SHT31;66104;45.456;11.064;2023-03-03T15:43:17;14.12;54.53
68746;SHT31;66104;45.456;11.064;2023-03-03T15:46:08;14.09;54.48
68746;SHT31;66104;45.456;11.064;2023-03-03T15:49:05;14.06;54.40
68746;SHT31;66104;45.456;11.064;2023-03-03T15:52:09;14.04;54.53
68746;SHT31;66104;45.456;11.064;2023-03-03T15:55:07;14.04;54.73
68746;SHT31;66104;45.456;11.064;2023-03-03T15:58:14;14.01;54.91
68746;SHT31;66104;45.456;11.064;2023-03-03T16:01:16;13.99;55.01
68746;SHT31;66104;45.456;11.064;2023-03-03T16:04:02;13.95;54.96
68746;SHT31;66104;45.456;11.064;2023-03-03T16:06:48;13.92;55.01
68746;SHT31;66104;45.456;11.064;2023-03-03T16:09:38;13.88;55.06
68746;SHT31;66104;45.456;11.064;2023-03-03T16:12:36;13.86;55.34
68746;SHT31;66104;45.456;11.064;2023-03-03T16:15:24;13.84;55.56
68746;SHT31;66104;45.456;11.064;2023-03-03T16:18:23;13.81;55.78
68746;SHT31;66104;45.456;11.064;2023-03-03T16:21:17;13.79;55.93
68746;SHT31;66104;45.456;11.064;2023-03-03T16:24:15;13.75;56.08
68746;SHT31;66104;45.456;11.064;2023-03-03T16:27:12;13.72;56.24
68746;SHT31;66104;45.456;11.064;2023-03-03T16:30:02;13.69;56.25
68746;SHT31;66104;45.456;11.064;2023-03-03T16:32:59;13.65;56.20
68746;SHT31;66104;45.456;11.064;2023-03-03T16:35:51;13.62;56.31
68746;SHT31;66104;45.456;11.064;2023-03-03T16:38:40;13.59;56.31
68746;SHT31;66104;45.456;11.064;2023-03-03T16:41:26;13.57;56.48
68746;SHT31;66104;45.456;11.064;2023-03-03T16:47:32;13.52;56.98
68746;SHT31;66104;45.456;11.064;2023-03-03T16:50:26;13.49;57.39
68746;SHT31;66104;45.456;11.064;2023-03-03T16:56:19;13.40;58.00
68746;SHT31;66104;45.456;11.064;2023-03-03T16:59:09;13.35;58.19
68746;SHT31;66104;45.456;11.064;2023-03-03T17:02:10;13.27;58.35
68746;SHT31;66104;45.456;11.064;2023-03-03T17:05:22;13.20;58.42
68746;SHT31;66104;45.456;11.064;2023-03-03T17:11:29;12.98;58.61
68746;SHT31;66104;45.456;11.064;2023-03-03T17:14:23;12.85;58.70
68746;SHT31;66104;45.456;11.064;2023-03-03T17:17:22;12.73;58.66
68746;SHT31;66104;45.456;11.064;2023-03-03T17:20:18;12.63;58.78
68746;SHT31;66104;45.456;11.064;2023-03-03T17:26:18;12.40;58.73
68746;SHT31;66104;45.456;11.064;2023-03-03T17:29:09;12.29;58.64
68746;SHT31;66104;45.456;11.064;2023-03-03T17:39:01;12.03;58.82
68746;SHT31;66104;45.456;11.064;2023-03-03T17:41:51;11.96;59.29
68746;SHT31;66104;45.456;11.064;2023-03-03T17:44:42;11.84;59.43
68746;SHT31;66104;45.456;11.064;2023-03-03T17:47:32;11.74;59.44
68746;SHT31;66104;45.456;11.064;2023-03-03T17:50:34;11.63;59.58
68746;SHT31;66104;45.456;11.064;2023-03-03T17:53:36;11.55;59.47
68746;SHT31;66104;45.456;11.064;2023-03-03T17:56:30;11.45;59.37
68746;SHT31;66104;45.456;11.064;2023-03-03T17:59:23;11.35;59.33
68746;SHT31;66104;45.456;11.064;2023-03-03T18:02:31;11.30;59.34
68746;SHT31;66104;45.456;11.064;2023-03-03T18:08:45;11.23;59.00
68746;SHT31;66104;45.456;11.064;2023-03-03T18:11:47;11.20;58.79
68746;SHT31;66104;45.456;11.064;2023-03-03T18:18:08;11.08;58.76
68746;SHT31;66104;45.456;11.064;2023-03-03T18:21:05;11.04;58.87
68746;SHT31;66104;45.456;11.064;2023-03-03T18:23:49;11.00;58.81
68746;SHT31;66104;45.456;11.064;2023-03-03T18:27:00;10.97;58.83
68746;SHT31;66104;45.456;11.064;2023-03-03T18:30:26;10.90;58.79
68746;SHT31;66104;45.456;11.064;2023-03-03T18:33:34;10.87;58.94